Polaris, Montana
Current Conditions -  °F | °C
As of 5:53 PM on Friday 24 Oct 2014 (Local Time) from KDLN Reporting Station
Overcast Overcast  
Wind Chill: 47°   Ceiling: 9000
Heat Index: 49°   Visibility: 10mi
Dew Point: 42°   Wind: 5mph
Humidity: 77%   Direction: 20°NNE
Pressure: 30.09"   Gusts: NA
Location:  45.37°N, 113.12°W
Report Text: KDLN 242353Z AUTO 02004KT 10SM OVC090 09/06 A3009 RMK AO2 SLP172 60000 T00940056 10117 20094 55002
Loading
Personal Weather Stations






























Interactive Weather Map New forecast layout! Learn more

10-Day Weather Forecast

Advertisements
Track Severe Weather on mobile